Time;durP1;ratioP1;P1;durP2;ratioP2;P2;SDS_P1;SDS_P2;PMS_P1;PMS_P2;Temp;Humidity;BMP_temperature;BMP_pressure;BME280_temperature;BME280_humidity;BME280_pressure;Samples;Min_cycle;Max_cycle;Signal;HPM_P1;HPM_P2
2022/10/16 00:00:45;;;;;;;6.30;4.50;;;11.70;99.90;;;;;;8396948;28;20041;-81
2022/10/16 00:04:45;;;;;;;7.78;4.40;;;11.80;99.90;;;;;;8393212;28;20706;-81
2022/10/16 00:08:47;;;;;;;7.38;4.18;;;11.60;99.90;;;;;;8396848;28;20497;-81
2022/10/16 00:12:48;;;;;;;11.23;4.13;;;11.60;99.90;;;;;;8396292;28;20431;-81
2022/10/16 00:16:48;;;;;;;5.03;4.50;;;11.50;99.90;;;;;;8398364;28;20028;-79
2022/10/16 00:20:49;;;;;;;9.10;4.95;;;11.40;99.90;;;;;;8378073;28;20032;-81
2022/10/16 00:24:49;;;;;;;8.88;5.03;;;11.30;99.90;;;;;;8419715;22;20044;-79
2022/10/16 00:28:51;;;;;;;8.98;5.43;;;11.40;99.90;;;;;;8355661;28;20033;-79
2022/10/16 00:32:51;;;;;;;8.45;5.10;;;11.30;99.90;;;;;;8360802;28;20107;-79
2022/10/16 00:36:52;;;;;;;9.38;5.25;;;11.50;99.90;;;;;;8356243;28;20710;-79
2022/10/16 00:40:53;;;;;;;8.55;4.40;;;11.40;99.90;;;;;;8361966;28;20055;-79
2022/10/16 00:44:56;;;;;;;7.80;4.93;;;11.50;99.90;;;;;;8360679;28;20032;-79
2022/10/16 00:49:17;;;;;;;10.57;4.60;;;11.50;99.90;;;;;;8348870;28;20046;-78
2022/10/16 00:53:18;;;;;;;9.23;5.40;;;11.50;99.90;;;;;;8339191;28;20041;-80
2022/10/16 00:57:19;;;;;;;6.00;4.75;;;11.50;99.90;;;;;;8340494;28;20035;-79
2022/10/16 01:01:20;;;;;;;8.57;4.60;;;11.60;99.90;;;;;;8334931;28;20077;-79
2022/10/16 01:05:23;;;;;;;11.40;4.40;;;11.60;99.90;;;;;;8350077;28;20022;-79
2022/10/16 01:09:35;;;;;;;8.07;4.40;;;11.60;99.90;;;;;;8335083;28;20021;-79
2022/10/16 01:13:42;;;;;;;6.38;4.55;;;11.50;99.90;;;;;;8343415;28;20021;-78
2022/10/16 01:17:53;;;;;;;8.45;4.60;;;11.40;99.90;;;;;;8371928;28;20409;-79
2022/10/16 01:21:56;;;;;;;8.65;4.45;;;11.50;99.90;;;;;;8361890;28;20025;-79
2022/10/16 01:26:41;;;;;;;8.38;4.35;;;11.50;99.90;;;;;;8355326;28;20075;-79
2022/10/16 01:30:44;;;;;;;7.55;4.40;;;11.50;99.90;;;;;;8209829;28;20028;-78
2022/10/16 01:35:02;;;;;;;7.93;4.88;;;11.50;99.90;;;;;;8285225;28;20123;-79
2022/10/16 01:39:03;;;;;;;8.25;4.82;;;11.50;99.90;;;;;;8360378;28;20020;-79
2022/10/16 01:43:12;;;;;;;7.85;4.75;;;11.50;99.90;;;;;;8360505;28;20025;-79
2022/10/16 01:47:13;;;;;;;4.95;4.07;;;11.60;99.90;;;;;;8362347;28;20026;-79
2022/10/16 01:51:16;;;;;;;9.75;4.80;;;11.60;99.90;;;;;;8329781;28;20401;-78
2022/10/16 01:55:25;;;;;;;6.65;5.07;;;11.60;99.90;;;;;;8345623;28;20059;-79
2022/10/16 01:59:30;;;;;;;6.03;4.75;;;11.60;99.90;;;;;;8347118;28;20049;-79
2022/10/16 02:03:33;;;;;;;8.85;4.63;;;11.70;99.90;;;;;;8343062;28;20018;-79
2022/10/16 02:07:33;;;;;;;7.78;4.28;;;11.80;99.90;;;;;;8337985;28;20106;-79
2022/10/16 02:11:34;;;;;;;7.20;4.30;;;11.80;99.90;;;;;;8339577;28;20403;-79
2022/10/16 02:15:35;;;;;;;7.97;4.70;;;11.90;99.90;;;;;;8353500;28;20031;-79
2022/10/16 02:19:36;;;;;;;4.00;3.50;;;12.00;99.90;;;;;;8358353;28;20747;-80
2022/10/16 02:23:58;;;;;;;8.52;4.03;;;12.00;99.90;;;;;;8355397;28;20029;-81
2022/10/16 02:28:22;;;;;;;5.50;4.15;;;12.00;99.90;;;;;;8356041;28;20033;-79
2022/10/16 02:32:26;;;;;;;9.23;3.80;;;12.00;99.90;;;;;;8349513;28;20493;-80
2022/10/16 02:36:27;;;;;;;8.90;3.95;;;12.10;99.90;;;;;;8353331;28;20036;-80
2022/10/16 02:40:28;;;;;;;6.13;3.50;;;12.00;99.90;;;;;;8358721;28;20457;-79
2022/10/16 02:44:29;;;;;;;8.95;3.47;;;12.10;99.90;;;;;;8357562;28;20024;-80
2022/10/16 02:48:30;;;;;;;5.35;3.97;;;12.10;99.90;;;;;;8343935;28;20067;-80
2022/10/16 02:52:30;;;;;;;6.55;3.20;;;12.00;99.90;;;;;;8359234;28;20021;-79
2022/10/16 02:56:31;;;;;;;6.18;3.47;;;12.10;99.90;;;;;;8351680;28;20375;-79
2022/10/16 03:00:31;;;;;;;11.35;3.22;;;12.20;99.90;;;;;;8354365;28;20034;-80
2022/10/16 03:04:32;;;;;;;4.93;2.58;;;12.60;99.90;;;;;;8340692;28;20018;-79
2022/10/16 03:08:32;;;;;;;5.80;2.60;;;12.80;99.90;;;;;;8336147;28;20413;-80
2022/10/16 03:12:33;;;;;;;6.95;3.45;;;12.50;99.90;;;;;;8335820;28;20028;-79
2022/10/16 03:16:34;;;;;;;6.63;3.15;;;12.30;99.90;;;;;;8362687;28;20033;-78
2022/10/16 03:20:34;;;;;;;5.07;3.20;;;12.20;99.90;;;;;;8360995;28;20123;-80
2022/10/16 03:24:35;;;;;;;7.88;2.88;;;12.20;99.90;;;;;;8356400;28;20028;-78
2022/10/16 03:28:35;;;;;;;6.82;3.08;;;11.90;99.90;;;;;;8359272;28;20021;-79
2022/10/16 03:32:36;;;;;;;10.95;3.20;;;11.90;99.90;;;;;;8355144;28;20059;-78
2022/10/16 03:36:36;;;;;;;4.53;3.10;;;11.80;99.90;;;;;;8362374;28;20025;-80
2022/10/16 03:40:37;;;;;;;5.10;3.08;;;11.80;99.90;;;;;;8361808;28;20068;-78
2022/10/16 03:44:37;;;;;;;4.93;2.85;;;11.80;99.90;;;;;;8356969;28;20028;-77
2022/10/16 03:48:39;;;;;;;5.05;2.92;;;11.80;99.90;;;;;;8343974;28;20118;-78
2022/10/16 03:52:40;;;;;;;6.68;3.45;;;11.70;99.90;;;;;;8343081;28;20028;-79
2022/10/16 03:56:40;;;;;;;5.13;2.97;;;11.70;99.90;;;;;;8344284;28;20111;-78
2022/10/16 04:00:46;;;;;;;10.98;2.80;;;11.70;99.90;;;;;;8344225;28;20493;-79
2022/10/16 04:04:47;;;;;;;4.35;2.70;;;11.80;99.90;;;;;;8344045;28;20024;-78
2022/10/16 04:08:47;;;;;;;5.38;2.92;;;11.70;99.90;;;;;;8346149;28;20037;-79
2022/10/16 04:12:48;;;;;;;7.88;3.33;;;11.70;99.90;;;;;;8347232;28;20464;-79
2022/10/16 04:16:49;;;;;;;9.23;4.13;;;11.80;99.90;;;;;;8357237;28;20039;-79
2022/10/16 04:20:49;;;;;;;9.65;4.40;;;11.80;99.90;;;;;;8356548;28;20044;-78
2022/10/16 04:24:50;;;;;;;8.80;4.07;;;11.70;99.90;;;;;;8346760;28;20024;-78
2022/10/16 04:28:50;;;;;;;7.88;4.20;;;11.60;99.90;;;;;;8352043;28;20252;-81
2022/10/16 04:32:52;;;;;;;9.43;5.05;;;11.60;99.90;;;;;;8353576;28;20044;-79
2022/10/16 04:36:52;;;;;;;7.80;4.60;;;11.60;99.90;;;;;;8353422;28;20035;-79
2022/10/16 04:40:53;;;;;;;7.55;4.00;;;11.70;99.90;;;;;;8355654;28;20032;-79
2022/10/16 04:44:54;;;;;;;9.10;3.33;;;11.70;99.90;;;;;;8352642;28;20029;-79
2022/10/16 04:48:54;;;;;;;6.10;2.97;;;11.70;99.90;;;;;;8346801;28;20029;-79
2022/10/16 04:52:55;;;;;;;4.45;3.50;;;11.70;99.90;;;;;;8342546;28;20518;-79
2022/10/16 04:56:55;;;;;;;4.30;3.45;;;11.60;99.90;;;;;;8342751;28;20028;-79
2022/10/16 05:00:56;;;;;;;12.38;4.05;;;11.50;99.90;;;;;;8361522;28;20028;-79
2022/10/16 05:19:05;;;;;;;9.98;4.28;;;11.20;99.90;;;;;;8343390;28;20468;-80
2022/10/16 05:23:06;;;;;;;5.15;3.50;;;11.00;99.90;;;;;;8317718;28;20095;-80
2022/10/16 05:27:06;;;;;;;8.75;3.88;;;11.00;99.90;;;;;;8322739;28;20547;-81
2022/10/16 05:31:09;;;;;;;8.18;4.18;;;10.90;99.90;;;;;;8343289;28;20484;-81
2022/10/16 05:35:09;;;;;;;10.52;5.03;;;11.00;99.90;;;;;;8336382;28;20116;-80
2022/10/16 05:39:10;;;;;;;6.70;4.72;;;11.00;99.90;;;;;;8331842;28;20384;-79
2022/10/16 05:43:10;;;;;;;9.27;4.32;;;11.10;99.90;;;;;;8336625;28;20056;-80
2022/10/16 05:47:13;;;;;;;9.10;4.13;;;11.10;99.90;;;;;;8349688;28;20036;-80
2022/10/16 05:51:15;;;;;;;10.32;3.55;;;11.10;99.90;;;;;;8322088;28;20148;-79
2022/10/16 05:55:15;;;;;;;5.90;3.70;;;11.30;99.90;;;;;;8348438;22;20029;-81
2022/10/16 05:59:16;;;;;;;9.02;4.28;;;11.20;99.90;;;;;;8279432;28;20384;-82
2022/10/16 06:03:16;;;;;;;5.93;4.00;;;11.30;99.90;;;;;;8279971;28;20057;-82
2022/10/16 06:07:17;;;;;;;9.43;4.10;;;11.40;99.90;;;;;;8291426;28;20021;-81
2022/10/16 06:11:20;;;;;;;6.60;3.42;;;11.50;99.90;;;;;;8284187;28;20495;-81
2022/10/16 06:15:20;;;;;;;7.65;4.65;;;11.80;99.90;;;;;;8280554;28;20030;-81
2022/10/16 06:19:21;;;;;;;7.63;5.55;;;11.80;99.90;;;;;;8279899;28;20718;-80
2022/10/16 06:23:22;;;;;;;12.77;6.53;;;11.80;99.90;;;;;;8301897;28;20026;-81
2022/10/16 06:27:23;;;;;;;11.32;6.65;;;11.90;99.90;;;;;;8287656;28;20025;-80
2022/10/16 06:31:27;;;;;;;6.32;3.92;;;11.90;99.90;;;;;;8302814;28;20036;-81
2022/10/16 06:35:29;;;;;;;5.35;3.67;;;12.20;99.90;;;;;;8302219;28;20461;-81
2022/10/16 06:39:29;;;;;;;8.15;3.92;;;12.40;99.90;;;;;;8287082;28;20094;-80
2022/10/16 06:43:35;;;;;;;8.23;4.25;;;12.40;99.90;;;;;;8286486;28;20026;-80
2022/10/16 06:47:35;;;;;;;11.48;3.25;;;12.50;99.90;;;;;;8303462;28;20065;-81
2022/10/16 06:51:40;;;;;;;7.05;3.70;;;12.60;99.90;;;;;;8286426;28;20409;-80
2022/10/16 06:55:41;;;;;;;4.55;3.28;;;12.80;99.90;;;;;;8295832;28;20096;-87
2022/10/16 06:59:41;;;;;;;4.68;2.42;;;12.90;99.90;;;;;;8288921;28;20029;-86
2022/10/16 07:03:44;;;;;;;3.00;2.00;;;13.00;99.90;;;;;;8316230;28;20512;-87
2022/10/16 07:07:44;;;;;;;3.50;2.60;;;13.10;99.90;;;;;;8306965;28;20113;-87
2022/10/16 07:11:45;;;;;;;4.78;2.80;;;13.40;99.90;;;;;;8308754;28;20033;-87
2022/10/16 07:15:45;;;;;;;5.72;2.40;;;13.70;99.90;;;;;;8329463;28;20443;-87
2022/10/16 07:19:46;;;;;;;4.00;2.40;;;13.90;99.90;;;;;;8330769;28;20378;-87
2022/10/16 07:23:54;;;;;;;6.13;2.30;;;13.90;99.90;;;;;;8315528;28;20113;-87
2022/10/16 07:27:56;;;;;;;4.78;2.00;;;14.10;99.90;;;;;;8313697;28;20045;-87
2022/10/16 07:31:57;;;;;;;6.47;1.95;;;14.30;99.90;;;;;;8297391;28;20044;-87
2022/10/16 07:35:57;;;;;;;3.33;1.77;;;14.50;99.90;;;;;;8295208;28;20461;-82
2022/10/16 07:39:58;;;;;;;5.10;2.40;;;14.90;99.90;;;;;;8285823;28;20121;-84
2022/10/16 07:44:00;;;;;;;2.20;2.00;;;15.10;99.90;;;;;;8268087;28;20080;-84
2022/10/16 07:48:00;;;;;;;4.65;2.80;;;15.40;99.90;;;;;;8289589;28;20095;-84
2022/10/16 07:52:01;;;;;;;5.47;2.42;;;15.90;99.90;;;;;;8271575;28;20026;-84
2022/10/16 07:56:05;;;;;;;5.55;2.17;;;16.30;99.90;;;;;;8278840;28;20038;-84
2022/10/16 08:00:06;;;;;;;6.15;2.60;;;16.50;99.90;;;;;;8270776;28;20064;-83
2022/10/16 08:04:07;;;;;;;5.32;2.00;;;16.90;99.90;;;;;;8280227;28;20034;-84
2022/10/16 08:08:15;;;;;;;4.60;2.13;;;17.40;99.90;;;;;;8284758;28;20034;-84
2022/10/16 08:12:16;;;;;;;3.30;2.08;;;17.50;99.90;;;;;;8271236;28;20030;-84
2022/10/16 08:16:17;;;;;;;5.97;1.85;;;17.70;99.90;;;;;;8260452;28;20112;-84
2022/10/16 08:20:17;;;;;;;5.85;1.60;;;18.40;99.90;;;;;;8274320;28;20513;-84
2022/10/16 08:24:18;;;;;;;4.45;1.95;;;18.40;99.90;;;;;;8290395;28;20018;-84
2022/10/16 08:28:19;;;;;;;3.38;1.52;;;18.80;99.90;;;;;;8278941;28;20114;-84
2022/10/16 08:32:19;;;;;;;4.05;2.00;;;19.10;99.90;;;;;;8290422;28;20042;-84
2022/10/16 08:36:20;;;;;;;6.55;1.83;;;19.00;99.90;;;;;;8294069;28;20659;-84
2022/10/16 08:40:25;;;;;;;2.35;1.30;;;19.10;99.90;;;;;;8295676;28;20037;-85
2022/10/16 08:44:38;;;;;;;3.00;1.33;;;19.30;99.90;;;;;;8277192;28;20117;-85
2022/10/16 08:48:51;;;;;;;3.40;1.20;;;19.90;99.90;;;;;;8277762;28;20118;-84
2022/10/16 08:52:52;;;;;;;2.47;1.40;;;19.60;99.90;;;;;;8279716;28;20033;-85
2022/10/16 08:56:56;;;;;;;3.90;2.17;;;19.50;99.90;;;;;;8296293;28;20041;-84
2022/10/16 09:01:00;;;;;;;2.10;1.33;;;19.80;99.90;;;;;;8294964;28;20505;-83
2022/10/16 09:05:20;;;;;;;2.55;1.40;;;19.60;99.90;;;;;;8272708;28;20030;-83
2022/10/16 09:09:46;;;;;;;1.60;1.13;;;19.70;99.90;;;;;;8292199;28;20014;-83
2022/10/16 09:14:00;;;;;;;2.63;1.30;;;19.80;99.90;;;;;;8275450;28;20036;-83
2022/10/16 09:18:17;;;;;;;2.03;1.25;;;20.20;99.90;;;;;;8274805;28;20030;-85
2022/10/16 09:22:27;;;;;;;3.95;1.73;;;20.80;99.90;;;;;;8276691;28;20034;-83
2022/10/16 09:26:28;;;;;;;1.95;1.40;;;20.80;99.90;;;;;;8271986;28;20041;-84
2022/10/16 09:30:29;;;;;;;2.58;1.50;;;21.00;99.90;;;;;;8293589;28;20026;-84
2022/10/16 09:34:38;;;;;;;3.97;1.45;;;21.40;99.90;;;;;;8293175;28;20501;-84
2022/10/16 09:38:38;;;;;;;4.15;1.52;;;21.80;99.90;;;;;;8294772;28;20045;-84
2022/10/16 09:42:39;;;;;;;2.25;1.13;;;22.00;99.90;;;;;;8293115;28;20018;-84
2022/10/16 09:46:40;;;;;;;2.38;1.00;;;22.30;99.90;;;;;;8292906;28;20088;-83
2022/10/16 09:50:40;;;;;;;2.70;1.00;;;22.50;99.90;;;;;;8268743;28;20037;-84
2022/10/16 09:54:51;;;;;;;1.58;1.00;;;22.50;99.90;;;;;;8276704;28;20459;-84
2022/10/16 09:58:54;;;;;;;2.60;0.90;;;22.90;99.90;;;;;;8280790;28;20030;-84
2022/10/16 10:02:55;;;;;;;1.70;0.85;;;23.40;99.90;;;;;;8278293;28;20037;-83
2022/10/16 10:06:58;;;;;;;3.25;0.80;;;23.40;99.90;;;;;;8282146;28;20042;-83
2022/10/16 10:10:58;;;;;;;1.27;1.00;;;23.50;99.90;;;;;;8273797;28;20034;-83
2022/10/16 10:15:11;;;;;;;1.23;0.90;;;23.80;99.90;;;;;;8287597;28;20705;-83
2022/10/16 10:19:21;;;;;;;1.10;0.90;;;24.20;99.90;;;;;;8289709;28;20566;-83
2022/10/16 10:23:23;;;;;;;1.33;0.80;;;24.30;99.90;;;;;;8284806;28;20029;-83
2022/10/16 10:27:47;;;;;;;1.27;0.95;;;24.20;99.90;;;;;;8294885;28;20021;-83
2022/10/16 10:31:58;;;;;;;2.35;0.95;;;24.00;99.90;;;;;;8268322;28;20037;-83
2022/10/16 10:36:22;;;;;;;2.40;1.10;;;24.20;99.90;;;;;;8294268;28;20033;-84
2022/10/16 10:40:29;;;;;;;3.10;1.10;;;24.30;99.90;;;;;;8288440;28;20022;-85
2022/10/16 10:44:51;;;;;;;1.15;0.90;;;25.00;99.90;;;;;;8282453;28;20457;-84
2022/10/16 10:49:12;;;;;;;1.30;0.90;;;26.10;99.90;;;;;;8270121;28;20026;-84
2022/10/16 10:53:30;;;;;;;1.13;0.95;;;27.90;99.90;;;;;;8271018;28;20025;-83
2022/10/16 10:58:01;;;;;;;2.53;1.00;;;28.80;99.90;;;;;;8281956;28;20049;-84
2022/10/16 11:02:07;;;;;;;2.28;0.80;;;29.20;99.90;;;;;;8277833;28;20058;-84
2022/10/16 11:06:14;;;;;;;2.80;0.75;;;30.40;96.60;;;;;;8299117;28;20028;-83
2022/10/16 11:10:32;;;;;;;2.30;0.73;;;30.00;92.80;;;;;;8297553;28;20076;-84
2022/10/16 11:15:02;;;;;;;3.35;0.93;;;29.10;97.60;;;;;;8279770;28;20033;-84
2022/10/16 11:19:37;;;;;;;3.22;1.10;;;28.60;96.10;;;;;;8278091;28;20033;-84
2022/10/16 11:24:00;;;;;;;2.45;0.90;;;27.60;99.20;;;;;;8280678;28;20405;-84
2022/10/16 11:28:15;;;;;;;2.97;1.00;;;27.20;99.90;;;;;;8273595;28;20057;-84
2022/10/16 11:32:50;;;;;;;2.72;0.80;;;28.10;99.20;;;;;;8297950;28;20497;-84
2022/10/16 11:37:18;;;;;;;2.08;0.90;;;28.50;98.10;;;;;;8281039;28;20398;-83
2022/10/16 11:41:28;;;;;;;1.83;0.90;;;28.50;97.80;;;;;;8274027;28;20157;-84
2022/10/16 11:45:38;;;;;;;1.70;0.87;;;29.10;95.10;;;;;;8269791;28;20110;-83
2022/10/16 11:49:40;;;;;;;1.58;0.90;;;30.40;92.20;;;;;;8284849;28;20053;-83
2022/10/16 11:54:13;;;;;;;2.25;1.13;;;31.10;90.90;;;;;;8286274;28;20109;-83
2022/10/16 11:58:19;;;;;;;3.40;0.90;;;30.70;84.80;;;;;;8288785;28;20137;-82
2022/10/16 12:02:30;;;;;;;1.67;0.77;;;30.10;87.20;;;;;;8273161;28;20497;-82
2022/10/16 12:06:40;;;;;;;2.35;0.60;;;29.60;90.90;;;;;;8271950;28;20537;-83
2022/10/16 12:10:43;;;;;;;1.63;0.60;;;30.80;86.10;;;;;;8300487;28;20033;-81
2022/10/16 12:14:44;;;;;;;0.95;0.70;;;32.00;80.50;;;;;;8276425;28;20045;-82
2022/10/16 12:18:46;;;;;;;2.92;1.00;;;32.40;77.90;;;;;;8279426;28;20030;-84
2022/10/16 12:22:53;;;;;;;2.60;0.70;;;32.90;73.20;;;;;;8278157;28;20084;-82
2022/10/16 12:26:54;;;;;;;3.97;0.80;;;32.20;71.70;;;;;;8275406;28;20471;-83
2022/10/16 12:31:01;;;;;;;1.63;0.80;;;30.10;75.90;;;;;;8292530;28;20143;-82
2022/10/16 12:35:04;;;;;;;3.13;0.70;;;28.30;79.10;;;;;;8295037;28;20121;-83
2022/10/16 12:39:05;;;;;;;3.05;0.68;;;27.40;83.20;;;;;;8276280;28;20470;-83
2022/10/16 12:43:33;;;;;;;2.20;0.70;;;26.80;84.40;;;;;;8294707;28;20073;-82
2022/10/16 12:47:33;;;;;;;2.90;0.90;;;26.20;90.70;;;;;;8278678;28;20103;-83
2022/10/16 12:51:36;;;;;;;0.88;0.70;;;26.20;88.70;;;;;;8277542;28;20030;-83
2022/10/16 12:55:55;;;;;;;1.30;0.70;;;26.10;86.80;;;;;;8294582;28;20022;-81
2022/10/16 13:00:33;;;;;;;1.60;0.80;;;25.70;88.20;;;;;;8278136;28;20022;-82
2022/10/16 13:04:47;;;;;;;1.48;0.70;;;25.00;88.70;;;;;;8295061;28;20601;-82
2022/10/16 13:09:19;;;;;;;1.42;0.80;;;24.70;92.30;;;;;;8276493;28;20037;-82
2022/10/16 13:13:43;;;;;;;2.55;0.85;;;24.60;92.70;;;;;;8270353;28;20026;-82
2022/10/16 13:17:58;;;;;;;1.67;0.90;;;24.60;93.90;;;;;;8266097;28;20022;-82
2022/10/16 13:22:18;;;;;;;1.58;0.80;;;24.70;94.10;;;;;;8287724;28;20030;-83
2022/10/16 13:26:33;;;;;;;1.67;0.98;;;25.20;92.10;;;;;;8283867;28;20481;-82
2022/10/16 13:30:41;;;;;;;0.95;0.80;;;25.00;88.60;;;;;;8276970;28;20026;-82
2022/10/16 13:34:48;;;;;;;1.65;0.80;;;24.60;93.90;;;;;;8453591;23;20037;-80
2022/10/16 13:39:00;;;;;;;1.02;0.73;;;25.70;93.00;;;;;;8330069;28;20048;-80
2022/10/16 13:43:01;;;;;;;2.92;0.90;;;27.30;89.60;;;;;;8322089;28;20025;-81
2022/10/16 13:47:02;;;;;;;4.82;0.88;;;28.20;88.60;;;;;;8328858;28;20484;-84
2022/10/16 13:51:04;;;;;;;1.20;0.70;;;28.40;80.80;;;;;;8330140;28;20515;-83
2022/10/16 13:55:17;;;;;;;1.83;1.00;;;28.50;80.30;;;;;;8327333;28;20053;-85
2022/10/16 13:59:25;;;;;;;1.73;0.77;;;28.90;77.90;;;;;;8327020;28;20109;-85
2022/10/16 14:03:27;;;;;;;1.90;0.85;;;28.40;76.80;;;;;;8326300;28;20056;-85
2022/10/16 14:07:31;;;;;;;2.17;1.05;;;27.00;91.10;;;;;;8327092;28;20025;-85
2022/10/16 14:11:33;;;;;;;1.77;1.10;;;25.80;91.40;;;;;;8324295;28;20022;-84
2022/10/16 14:15:36;;;;;;;1.98;1.00;;;25.20;93.10;;;;;;8324449;28;20009;-84
2022/10/16 14:19:36;;;;;;;1.15;0.90;;;25.00;90.80;;;;;;8326852;28;20653;-84
2022/10/16 14:23:42;;;;;;;0.73;0.60;;;24.90;92.80;;;;;;8325641;28;20018;-84
2022/10/16 14:27:43;;;;;;;0.60;0.60;;;25.10;91.20;;;;;;8332345;28;20031;-85
2022/10/16 14:32:01;;;;;;;2.13;0.70;;;25.50;91.20;;;;;;8327866;28;20018;-86
2022/10/16 14:36:11;;;;;;;1.20;0.93;;;25.70;90.80;;;;;;8325154;28;20117;-85
2022/10/16 14:40:15;;;;;;;3.67;1.23;;;26.00;95.00;;;;;;8327323;28;20025;-84
2022/10/16 14:44:19;;;;;;;2.28;0.82;;;25.80;93.30;;;;;;8320260;28;20037;-84
2022/10/16 14:48:20;;;;;;;3.47;0.80;;;25.10;95.20;;;;;;8325474;28;20032;-85
2022/10/16 14:52:21;;;;;;;1.65;0.90;;;24.40;97.50;;;;;;8333475;28;20120;-84
2022/10/16 14:56:25;;;;;;;1.15;0.82;;;23.70;99.90;;;;;;8324557;28;20033;-80
2022/10/16 15:00:25;;;;;;;3.28;1.10;;;23.10;99.90;;;;;;8329185;28;20029;-82
2022/10/16 15:04:26;;;;;;;2.97;1.00;;;22.70;99.90;;;;;;8329187;28;20028;-80
2022/10/16 15:08:26;;;;;;;1.40;1.30;;;22.50;99.90;;;;;;8332434;28;20032;-80
2022/10/16 15:12:27;;;;;;;3.15;1.00;;;22.10;99.90;;;;;;8331502;28;20042;-80
2022/10/16 15:16:28;;;;;;;7.88;1.60;;;21.90;99.90;;;;;;8331164;28;20036;-81
2022/10/16 15:20:33;;;;;;;3.03;1.40;;;21.70;99.90;;;;;;8330739;28;20021;-80
2022/10/16 15:24:34;;;;;;;6.55;1.40;;;21.60;99.90;;;;;;8332008;28;20048;-80
2022/10/16 15:28:35;;;;;;;2.72;1.20;;;21.30;99.90;;;;;;8327524;28;20493;-79
2022/10/16 15:32:36;;;;;;;5.05;1.38;;;21.10;99.90;;;;;;8326425;28;20021;-81
2022/10/16 15:36:38;;;;;;;3.83;1.20;;;20.90;99.90;;;;;;8320865;28;20071;-80
2022/10/16 15:40:39;;;;;;;5.05;1.67;;;20.80;99.90;;;;;;8322391;28;20033;-80
2022/10/16 15:44:40;;;;;;;3.88;1.00;;;20.50;99.90;;;;;;8314026;28;20022;-80
2022/10/16 15:48:40;;;;;;;7.32;1.02;;;20.30;99.90;;;;;;8322297;28;20121;-81
2022/10/16 15:52:41;;;;;;;5.32;1.38;;;20.10;99.90;;;;;;8329005;28;20497;-80
2022/10/16 15:56:41;;;;;;;10.57;1.50;;;19.80;99.90;;;;;;8329704;28;20021;-80
2022/10/16 16:00:42;;;;;;;4.85;1.30;;;19.50;99.90;;;;;;8330623;28;20084;-80
2022/10/16 16:04:43;;;;;;;6.82;1.42;;;19.30;99.90;;;;;;8329423;28;20227;-80
2022/10/16 16:08:43;;;;;;;4.70;1.10;;;19.10;99.90;;;;;;8314057;28;20076;-80
2022/10/16 16:12:51;;;;;;;3.95;1.20;;;18.90;99.90;;;;;;8324915;28;20033;-80
2022/10/16 16:16:51;;;;;;;4.85;1.42;;;18.40;99.90;;;;;;8315335;28;20053;-80
2022/10/16 16:20:53;;;;;;;5.93;1.35;;;18.10;99.90;;;;;;8328191;28;20034;-80
2022/10/16 16:24:53;;;;;;;3.60;1.17;;;17.50;99.90;;;;;;8326867;28;20041;-80
2022/10/16 16:28:55;;;;;;;7.07;2.30;;;17.30;99.90;;;;;;8321757;28;20594;-80
2022/10/16 16:32:56;;;;;;;5.93;2.40;;;17.20;99.90;;;;;;8324182;28;20095;-78
2022/10/16 16:36:56;;;;;;;3.50;2.20;;;17.00;99.90;;;;;;8325723;28;20041;-79
2022/10/16 16:40:57;;;;;;;4.93;3.00;;;16.70;99.90;;;;;;8326789;28;20029;-80
2022/10/16 16:44:58;;;;;;;8.98;2.50;;;16.50;99.90;;;;;;8324923;28;20041;-79
2022/10/16 16:48:59;;;;;;;14.30;8.02;;;16.30;99.90;;;;;;8316794;28;20129;-79
2022/10/16 16:52:59;;;;;;;10.25;5.72;;;16.10;99.90;;;;;;8325168;28;20673;-81
2022/10/16 16:57:00;;;;;;;12.25;4.55;;;15.90;99.90;;;;;;8313183;28;20029;-79
2022/10/16 17:01:02;;;;;;;6.72;2.10;;;15.70;99.90;;;;;;8305447;28;20753;-80
2022/10/16 17:05:03;;;;;;;8.07;2.70;;;15.80;99.90;;;;;;8316876;28;20496;-80
2022/10/16 17:09:05;;;;;;;11.57;4.28;;;15.80;99.90;;;;;;8312392;28;20029;-80
2022/10/16 17:13:06;;;;;;;6.75;2.47;;;15.60;99.90;;;;;;8310934;28;20509;-79
2022/10/16 17:17:06;;;;;;;9.23;1.90;;;15.40;99.90;;;;;;8308149;28;20113;-80
2022/10/16 17:21:08;;;;;;;11.50;2.90;;;15.10;99.90;;;;;;8309013;28;20064;-79
2022/10/16 17:25:09;;;;;;;7.05;2.60;;;14.90;99.90;;;;;;8300192;28;20034;-78
2022/10/16 17:29:12;;;;;;;8.02;3.67;;;14.80;99.90;;;;;;8316116;28;20104;-78
2022/10/16 17:33:13;;;;;;;13.77;3.75;;;14.80;99.90;;;;;;8321717;28;20558;-79
2022/10/16 17:37:13;;;;;;;13.70;7.10;;;14.70;99.90;;;;;;8321321;28;20030;-79
2022/10/16 17:41:18;;;;;;;8.45;3.55;;;14.60;99.90;;;;;;8303107;28;20036;-80
2022/10/16 17:45:18;;;;;;;3.80;2.00;;;14.50;99.90;;;;;;8300996;28;20030;-78
2022/10/16 17:49:20;;;;;;;10.00;1.73;;;14.50;99.90;;;;;;8304489;28;20101;-79
2022/10/16 17:53:20;;;;;;;7.50;1.58;;;14.30;99.90;;;;;;8304912;28;20022;-80
2022/10/16 17:57:21;;;;;;;5.35;2.00;;;14.10;99.90;;;;;;8309810;28;20581;-77
2022/10/16 18:01:34;;;;;;;10.23;3.30;;;13.80;99.90;;;;;;8302432;28;20022;-78
2022/10/16 18:05:37;;;;;;;5.97;3.15;;;13.80;99.90;;;;;;8301777;28;20036;-78
2022/10/16 18:09:40;;;;;;;10.55;4.32;;;13.60;99.90;;;;;;8313840;28;20036;-77
2022/10/16 18:13:41;;;;;;;15.60;6.85;;;13.40;99.90;;;;;;8304271;28;20137;-78
2022/10/16 18:17:42;;;;;;;14.43;7.72;;;13.40;99.90;;;;;;8313324;28;20082;-79
2022/10/16 18:21:42;;;;;;;14.07;8.70;;;13.30;99.90;;;;;;8329814;28;20568;-78
2022/10/16 18:25:49;;;;;;;16.00;8.70;;;13.20;99.90;;;;;;8326941;28;20068;-79
2022/10/16 18:29:55;;;;;;;16.73;7.65;;;13.00;99.90;;;;;;8330550;28;20033;-79
2022/10/16 18:33:56;;;;;;;11.40;6.07;;;12.90;99.90;;;;;;8325058;28;20025;-78
2022/10/16 18:37:59;;;;;;;10.52;5.40;;;12.90;99.90;;;;;;8325453;28;20022;-78
2022/10/16 18:41:59;;;;;;;11.55;6.95;;;12.80;99.90;;;;;;8325293;28;20449;-79
2022/10/16 18:46:06;;;;;;;12.63;8.15;;;12.70;99.90;;;;;;8325920;28;20075;-79
2022/10/16 18:50:07;;;;;;;11.88;6.28;;;12.60;99.90;;;;;;8321096;28;20028;-78
2022/10/16 18:54:10;;;;;;;16.75;5.90;;;12.60;99.90;;;;;;8326020;28;20041;-78
2022/10/16 18:58:11;;;;;;;13.65;5.50;;;12.50;99.90;;;;;;8329221;28;20033;-78
2022/10/16 19:02:11;;;;;;;11.95;6.70;;;12.40;99.90;;;;;;8322932;28;20078;-80
2022/10/16 19:06:14;;;;;;;11.27;6.10;;;12.30;99.90;;;;;;8326869;28;20026;-78
2022/10/16 19:10:15;;;;;;;13.02;6.25;;;12.20;99.90;;;;;;8328835;28;20108;-79
2022/10/16 19:14:16;;;;;;;9.93;4.85;;;12.10;99.90;;;;;;8326531;28;20044;-79
2022/10/16 19:18:17;;;;;;;14.32;6.90;;;12.30;99.90;;;;;;8320062;28;20025;-79
2022/10/16 19:22:29;;;;;;;13.73;6.32;;;12.20;99.90;;;;;;8323591;28;20030;-79
2022/10/16 19:26:30;;;;;;;7.63;5.20;;;12.10;99.90;;;;;;8329311;28;20021;-79
2022/10/16 19:30:38;;;;;;;12.10;5.40;;;11.90;99.90;;;;;;8328163;28;20064;-78
2022/10/16 19:34:38;;;;;;;11.70;4.35;;;11.90;99.90;;;;;;8330055;28;20033;-79
2022/10/16 19:38:40;;;;;;;8.43;3.97;;;11.90;99.90;;;;;;8332948;28;20035;-79
2022/10/16 19:42:43;;;;;;;11.70;3.92;;;11.80;99.90;;;;;;8332049;28;20024;-78
2022/10/16 19:46:45;;;;;;;13.65;4.45;;;11.60;99.90;;;;;;8332608;28;20034;-79
2022/10/16 19:50:46;;;;;;;6.63;3.33;;;11.80;99.90;;;;;;8330951;28;20083;-80
2022/10/16 19:54:47;;;;;;;8.82;3.58;;;11.50;99.90;;;;;;8331713;28;20025;-79
2022/10/16 19:58:48;;;;;;;5.47;3.85;;;11.30;99.90;;;;;;8329919;28;20076;-79
2022/10/16 20:02:49;;;;;;;14.45;7.13;;;11.20;99.90;;;;;;8332863;28;20033;-79
2022/10/16 20:06:49;;;;;;;12.82;7.38;;;11.30;99.90;;;;;;8329447;28;20075;-78
2022/10/16 20:10:52;;;;;;;11.80;5.20;;;11.30;99.90;;;;;;8330648;28;20701;-79
2022/10/16 20:14:52;;;;;;;11.38;4.38;;;11.30;99.90;;;;;;8329329;28;20032;-79
2022/10/16 20:18:53;;;;;;;7.15;3.80;;;11.20;99.90;;;;;;8354355;23;20048;-93
2022/10/16 20:22:53;;;;;;;9.52;3.78;;;11.10;99.90;;;;;;8368063;28;20024;-92
2022/10/16 20:26:54;;;;;;;7.57;4.70;;;10.90;99.90;;;;;;8361962;28;20025;-92
2022/10/16 20:30:54;;;;;;;7.00;4.28;;;10.70;99.90;;;;;;8362294;28;20025;-92
2022/10/16 20:34:55;;;;;;;9.00;4.07;;;10.70;99.90;;;;;;8378937;28;20044;-92
2022/10/16 20:38:56;;;;;;;7.15;3.85;;;10.80;99.90;;;;;;8371334;28;20017;-93
2022/10/16 20:42:57;;;;;;;13.70;4.53;;;10.70;99.90;;;;;;8369717;28;20031;-92
2022/10/16 20:46:57;;;;;;;9.95;4.93;;;10.60;99.90;;;;;;8394524;28;20484;-92
2022/10/16 20:50:58;;;;;;;6.55;4.13;;;10.50;99.90;;;;;;8379170;28;20035;-93
2022/10/16 20:54:59;;;;;;;10.38;4.43;;;10.50;99.90;;;;;;8353536;28;20017;-93
2022/10/16 20:59:00;;;;;;;8.60;3.92;;;10.50;99.90;;;;;;8369858;28;20457;-92
2022/10/16 21:03:00;;;;;;;6.25;3.58;;;10.40;99.90;;;;;;8363049;28;20550;-92
2022/10/16 21:07:01;;;;;;;9.98;4.03;;;10.20;99.90;;;;;;8377649;28;20025;-92
2022/10/16 21:11:09;;;;;;;7.28;4.22;;;10.00;99.90;;;;;;8377587;28;20029;-92
2022/10/16 21:15:11;;;;;;;15.23;4.68;;;10.10;99.90;;;;;;8369207;28;20029;-92
2022/10/16 21:19:12;;;;;;;8.45;4.57;;;10.00;99.90;;;;;;8385922;28;20379;-93
2022/10/16 21:23:13;;;;;;;8.85;4.70;;;10.20;99.90;;;;;;8374801;28;20024;-92